Latest Coastal Weather Observations for Wynyard

IDT60701

Issued at 1:02 pm EDT Tuesday 2 March 2021 (issued every 10 minutes, with the page automatically refreshed every 10 minutes)

About coastal observations | Map of coastal stations | Coastal observations for TAS | Marine services | Other Formats
Station Details ID: 091107 Name: WYNYARD AIRPORT Lat: -41.00 Lon: 145.73 Height: 12.0 m
Data from the previous 72 hours. | See also: Recent months at Wynyard
Date/Time
EDT
Wind Sea
Height
m
Swell Vis
km
Cloud Weather Temp
°C
Press
MSL
hPa
Rain since
9am
mm
Dir  Spd
kts
Gust
kts
Height
m
Period
s
Dir
02/01:00pm SW 15 21 - - - - 10 Partly cloudy - 15.6 1015.4 0.0
02/12:38pm SSW 14 26 - - - - 10 Partly cloudy - 15.6 1015.6 0.0
02/12:30pm SW 17 25 - - - - 10 Partly cloudy - 15.3 1015.5 0.0
02/12:12pm SSW 17 28 - - - - 10 Partly cloudy - 15.1 1015.6 0.0
02/12:00pm SSW 13 20 - - - - 10 Partly cloudy - 15.6 1015.7 0.0
02/11:30am S 16 29 - - - - 10 Partly cloudy - 13.7 1015.6 0.0
02/11:00am SW 16 26 - - - - 10 Partly cloudy - 14.9 1015.4 0.0
02/10:58am SW 16 26 - - - - 10 Partly cloudy - 15.2 1015.4 0.0
02/10:30am SW 16 21 - - - - 10 Partly cloudy - 14.6 1015.3 0.0
02/10:00am SSW 14 22 - - - - 10 Partly cloudy - 13.1 1015.3 0.0
02/09:45am SW 16 26 - - - - 10 Partly cloudy - 12.8 1015.3 0.0
02/09:30am SW 15 19 - - - - 10 Partly cloudy - 12.9 1015.2 0.0
02/09:00am SW 13 20 - - - - 10 - - 11.9 1014.9 0.0
02/08:30am SW 24 31 - - - - 10 - - 11.0 1014.3 0.0
02/08:04am SW 15 27 - - - - 10 - - 10.4 1013.4 0.0
02/08:00am WSW 11 21 - - - - 10 - - 10.4 1013.4 0.0
02/07:30am W 4 9 - - - - 10 Partly cloudy - 9.2 1013.5 0.0
02/07:00am NW 7 9 - - - - 10 Partly cloudy - 9.3 1013.3 0.0
02/06:30am WSW 11 13 - - - - 10 - - 7.9 1013.1 0.0
02/06:00am WNW 10 12 - - - - 10 - - 8.3 1013.0 0.0
02/05:30am WSW 9 11 - - - - 10 - - 8.2 1012.7 0.0
02/05:00am W 8 9 - - - - 10 Partly cloudy - 8.8 1012.5 0.0
02/04:30am WSW 10 14 - - - - 10 Partly cloudy - 10.1 1012.4 0.0
02/04:00am W 8 9 - - - - 10 Partly cloudy - 9.2 1012.2 0.0
02/03:30am WNW 11 15 - - - - 10 Partly cloudy - 9.2 1012.0 0.0
02/03:00am W 9 12 - - - - 10 Mostly clear - 9.2 1011.8 0.0
02/02:30am W 8 12 - - - - 10 - - 9.2 1011.7 0.0
02/02:00am W 8 12 - - - - 10 - - 9.8 1011.6 0.0
02/01:30am WSW 11 17 - - - - 10 - - 9.5 1011.3 0.0
02/01:00am W 11 14 - - - - 10 Partly cloudy - 9.2 1011.2 0.0
02/12:30am W 15 21 - - - - 10 Partly cloudy - 9.5 1010.7 0.0
02/12:00am WSW 12 17 - - - - 10 - - 9.5 1011.4 0.0
 
Date/Time
EDT
Wind Sea
Height
m
Swell Vis
km
Cloud Weather Temp
°C
Press
MSL
hPa
Rain since
9am
mm
Dir  Spd
kts
Gust
kts
Height
m
Period
s
Dir
01/11:30pm WSW 13 19 - - - - 10 - - 9.4 1011.3 0.0
01/11:02pm W 16 26 - - - - 10 Partly cloudy - 9.8 1010.9 0.0
01/11:00pm W 17 26 - - - - 10 Partly cloudy - 9.8 1010.9 0.0
01/10:30pm W 16 21 - - - - 10 - - 9.7 1010.7 0.0
01/10:00pm W 16 26 - - - - 10 Partly cloudy - 10.2 1010.6 0.0
01/09:38pm WSW 19 29 - - - - 10 Partly cloudy - 10.3 1010.5 0.0
01/09:30pm WSW 18 26 - - - - 10 Partly cloudy - 10.6 1010.4 0.0
01/09:26pm WSW 16 26 - - - - 10 Partly cloudy - 10.5 1010.4 0.0
01/09:00pm WSW 16 22 - - - - 10 Mostly clear - 11.0 1009.8 0.0
01/08:30pm WSW 14 23 - - - - 10 Partly cloudy - 10.9 1009.2 0.0
01/08:05pm WSW 15 25 - - - - 10 Partly cloudy - 11.1 1008.8 0.0
01/08:00pm WSW 15 21 - - - - 10 Partly cloudy - 11.2 1008.7 0.0
01/07:30pm WSW 16 26 - - - - 10 Partly cloudy - 11.5 1007.9 0.0
01/07:00pm WSW 17 28 - - - - 10 Partly cloudy - 12.0 1007.6 0.0
01/06:32pm SW 17 28 - - - - 10 Partly cloudy - 13.2 1007.1 0.0
01/06:30pm SW 17 24 - - - - 10 Partly cloudy - 13.5 1007.0 0.0
01/06:01pm WSW 24 35 - - - - 10 Partly cloudy - 13.6 1006.6 0.0
01/06:00pm WSW 23 30 - - - - 10 Mostly clear - 13.7 1006.6 0.0
01/05:30pm SW 23 35 - - - - 10 Partly cloudy - 14.2 1006.3 0.0
01/05:00pm WSW 24 37 - - - - 10 Partly cloudy - 15.9 1005.7 0.0
01/04:32pm WSW 23 33 - - - - 10 Partly cloudy - 16.2 1005.7 0.0
01/04:30pm WSW 24 33 - - - - 10 Partly cloudy - 16.2 1005.7 0.0
01/04:00pm WSW 24 37 - - - - 10 Partly cloudy - 16.5 1005.8 0.0
01/03:30pm WSW 24 37 - - - - 10 Partly cloudy - 16.9 1006.1 0.0
01/03:00pm WSW 27 37 - - - - 10 Mostly cloudy - 17.0 1006.1 0.0
01/02:30pm W 20 30 - - - - 10 Partly cloudy - 17.3 1005.7 0.0
01/02:28pm W 19 30 - - - - 10 Partly cloudy - 17.2 1005.9 0.0
01/02:00pm WSW 23 32 - - - - 10 Partly cloudy - 16.6 1005.9 0.0
01/01:56pm WSW 20 30 - - - - 10 Partly cloudy - 17.6 1005.8 0.0
01/01:30pm W 21 28 - - - - 9 Partly cloudy - 17.7 1006.2 0.0
01/01:00pm W 17 24 - - - - 10 Partly cloudy - 18.9 1006.0 0.0
01/12:30pm WNW 15 21 - - - - 10 Partly cloudy - 20.9 1006.2 0.0
01/12:00pm W 13 22 - - - - 10 Cloudy - 20.1 1006.6 0.0
01/11:30am W 14 19 - - - - 10 Partly cloudy - 18.7 1007.1 0.0
01/11:00am WSW 14 18 - - - - 10 Partly cloudy - 19.4 1007.3 0.0
01/10:30am WSW 11 15 - - - - 10 Partly cloudy - 18.1 1007.5 0.0
01/10:00am WSW 10 13 - - - - 10 Cloudy - 17.1 1007.5 0.0
01/09:30am W 10 12 - - - - 10 Cloudy - 16.1 1007.6 0.0
01/09:00am W 9 12 - - - - 10 Cloudy - 15.7 1007.6 0.0
01/08:30am W 6 8 - - - - 10 Partly cloudy - 15.5 1007.5 0.0
01/08:00am W 5 5 - - - - 10 - - 14.3 1007.4 0.0
01/07:30am W 6 7 - - - - 10 - - 13.0 1007.6 0.0
01/07:00am W 5 7 - - - - 10 Partly cloudy - 13.9 1007.5 0.0
01/06:30am NW 5 6 - - - - 10 Partly cloudy - 14.6 1007.5 0.0
01/06:00am W 4 5 - - - - 10 Cloudy - 14.0 1007.5 0.0
01/05:30am W 5 6 - - - - 10 Partly cloudy - 13.8 1007.6 0.0
01/05:00am W 4 5 - - - - 10 Partly cloudy - 13.7 1007.7 0.0
01/04:30am WSW 4 5 - - - - 10 Partly cloudy - 13.9 1007.8 0.0
01/04:00am W 4 5 - - - - 10 Partly cloudy - 14.1 1008.1 0.0
01/03:30am WSW 3 4 - - - - 10 Partly cloudy - 13.7 1008.1 0.0
01/03:00am WSW 4 5 - - - - 10 Cloudy - 14.4 1008.5 0.0
01/02:30am W 4 5 - - - - 10 Partly cloudy - 14.6 1008.8 0.0
01/02:17am WNW 6 8 - - - - 10 Partly cloudy - 14.8 1008.9 0.0
01/02:00am W 5 7 - - - - 10 Partly cloudy - 14.4 1009.1 0.0
01/01:30am SW 2 4 - - - - 10 Partly cloudy - 14.2 1009.3 0.0
01/01:00am WSW 4 5 - - - - 10 Partly cloudy - 14.1 1009.4 0.0
01/12:30am WNW 4 5 - - - - 10 Partly cloudy - 14.4 1009.7 0.0
01/12:00am SW 5 6 - - - - 10 Cloudy - 13.3 1009.8 0.0
 
Date/Time
EDT
Wind Sea
Height
m
Swell Vis
km
Cloud Weather Temp
°C
Press
MSL
hPa
Rain since
9am
mm
Dir  Spd
kts
Gust
kts
Height
m
Period
s
Dir
28/11:30pm WSW 5 7 - - - - 10 - - 13.5 1010.0 0.0
28/11:00pm WSW 3 5 - - - - 10 - - 15.4 1010.1 0.0
28/10:30pm S 5 7 - - - - 10 - - 15.4 1010.0 0.0
28/10:00pm SSW 3 3 - - - - 10 Cloudy - 15.8 1010.6 0.0
28/09:30pm S 3 4 - - - - 10 Partly cloudy - 15.7 1010.6 0.0
28/09:00pm WSW 2 3 - - - - 10 Cloudy - 16.3 1010.5 0.0
28/08:30pm WSW 4 5 - - - - 10 Partly cloudy - 16.5 1010.6 0.0
28/08:24pm W 4 6 - - - - 10 Partly cloudy - 16.5 1010.5 0.0
28/08:00pm NW 5 6 - - - - 10 Partly cloudy - 17.4 1010.5 0.0
28/07:45pm NW 6 9 - - - - 10 Partly cloudy - 17.6 1010.4 0.0
28/07:30pm NW 7 9 - - - - 10 Partly cloudy - 17.6 1010.2 0.0
28/07:23pm NW 7 9 - - - - 10 Partly cloudy - 17.7 1010.3 0.0
28/07:00pm NW 9 12 - - - - 10 Partly cloudy - 17.9 1010.3 0.0
28/06:30pm NW 7 11 - - - - 10 Partly cloudy - 18.3 1010.4 0.0
28/06:17pm NW 7 12 - - - - 10 Partly cloudy - 18.5 1010.3 0.0
28/06:00pm NNW 10 13 - - - - 10 Mostly clear - 18.5 1010.4 0.0
28/05:30pm NW 10 13 - - - - 10 Partly cloudy - 18.9 1010.4 0.0
28/05:00pm NNW 9 13 - - - - 10 Partly cloudy - 19.6 1010.4 0.0
28/04:30pm NNW 10 13 - - - - 10 Partly cloudy - 19.7 1010.5 0.0
28/04:00pm NNW 10 13 - - - - 10 - - 20.0 1010.8 0.0
28/03:30pm NNW 9 13 - - - - 10 - - 20.2 1011.0 0.0
28/03:00pm N 9 13 - - - - 10 - - 20.3 1011.4 0.0
28/02:30pm NNE 10 14 - - - - 10 - - 20.6 1011.7 0.0
28/02:00pm NNE 10 13 - - - - 10 - - 19.9 1011.8 0.0
28/01:30pm NNE 10 14 - - - - 10 Partly cloudy - 20.3 1012.1 0.0
28/01:00pm NNE 10 13 - - - - 10 Partly cloudy - 19.4 1012.6 0.0
28/12:30pm NNE 10 12 - - - - 10 - - 19.6 1012.9 0.0
28/12:00pm NNE 10 12 - - - - 10 - - 19.0 1013.3 0.0
28/11:30am NE 9 11 - - - - 10 - - 18.9 1013.6 0.0
28/11:00am NNE 7 9 - - - - 10 Partly cloudy - 18.6 1013.7 0.0
28/10:30am NNE 6 7 - - - - 10 - - 19.3 1013.7 0.0
28/10:00am NW 4 6 - - - - 10 - - 18.2 1013.7 0.0
28/09:30am CALM 0 0 - - - - 10 - - 17.6 1013.6 0.0
28/09:00am WNW 3 5 - - - - 10 - - 16.0 1013.5 0.0
28/08:30am W 4 6 - - - - 10 - - 14.7 1013.4 0.0
28/08:00am SSW 2 5 - - - - 10 - - 12.2 1013.0 0.0
28/07:30am SW 3 5 - - - - 10 - - 12.3 1013.3 0.0
28/07:00am W 5 5 - - - - 10 - - 11.7 1013.2 0.0
28/06:30am WNW 1 4 - - - - 10 - - 13.1 1012.8 0.0
28/06:00am SW 3 4 - - - - 10 Cloudy - 13.0 1012.6 0.0
28/05:30am W 3 4 - - - - 10 Cloudy - 13.4 1012.6 0.0
28/05:00am W 3 3 - - - - 10 Cloudy - 13.8 1012.7 0.0
28/04:30am W 4 4 - - - - 10 Cloudy - 13.8 1012.8 0.0
28/04:00am CALM 0 0 - - - - 10 Partly cloudy - 13.7 1013.1 0.0
28/03:30am CALM 0 0 - - - - 10 Partly cloudy - 13.8 1013.3 0.0
28/03:00am W 2 3 - - - - 10 Mostly cloudy - 13.8 1013.3 0.0
28/02:30am W 4 5 - - - - 10 Cloudy - 14.1 1013.4 0.0
28/02:00am W 6 7 - - - - 10 Cloudy - 13.8 1013.5 0.0
28/01:30am WSW 4 6 - - - - 10 Cloudy - 12.8 1013.5 0.0
28/01:00am SW 2 5 - - - - 10 Partly cloudy - 13.1 1013.4 0.0
28/12:30am WSW 6 6 - - - - 10 Partly cloudy - 12.2 1013.3 0.0
28/12:00am W 4 4 - - - - 10 Mostly cloudy - 13.8 1013.1 0.0
 
Date/Time
EDT
Wind Sea
Height
m
Swell Vis
km
Cloud Weather Temp
°C
Press
MSL
hPa
Rain since
9am
mm
Dir  Spd
kts
Gust
kts
Height
m
Period
s
Dir
27/11:30pm SW 4 5 - - - - 10 - - 13.4 1013.3 0.0
27/11:00pm SW 4 5 - - - - 10 - - 13.6 1013.6 0.0
27/10:30pm W 5 6 - - - - 10 - - 13.9 1013.7 0.0
27/10:00pm W 5 5 - - - - 10 - - 14.2 1013.7 0.0
27/09:30pm W 3 4 - - - - 10 - - 14.5 1013.6 0.0
27/09:00pm WSW 3 4 - - - - 10 Cloudy - 15.3 1013.5 0.0
27/08:30pm W 3 4 - - - - 10 - - 15.4 1013.5 0.0
27/08:00pm WNW 5 6 - - - - 10 - - 16.1 1013.3 0.0
27/07:30pm WSW 5 5 - - - - 10 - - 16.3 1013.2 0.0
27/07:00pm NW 4 6 - - - - 10 Partly cloudy - 16.8 1013.2 0.0
27/06:30pm N 7 9 - - - - 10 Cloudy - 17.1 1013.3 0.0
27/06:00pm N 6 8 - - - - 10 Mostly cloudy - 17.4 1013.1 0.0
27/05:30pm N 5 7 - - - - 10 Partly cloudy - 17.6 1013.2 0.0
27/05:00pm NNE 8 10 - - - - 10 Partly cloudy - 17.7 1013.1 0.0
27/04:30pm NNE 8 10 - - - - 10 Partly cloudy - 17.9 1013.1 0.0
27/04:00pm NNE 7 9 - - - - 10 - - 18.2 1013.4 0.0
27/03:30pm N 5 7 - - - - 10 Partly cloudy - 18.3 1013.7 0.0
27/03:00pm N 3 6 - - - - 10 Cloudy - 17.6 1014.1 0.0
27/02:30pm NNE 6 8 - - - - 10 Cloudy - 16.9 1014.4 0.0
27/02:00pm NE 6 7 - - - - 10 Partly cloudy - 16.9 1014.5 0.0
27/01:30pm NNE 7 9 - - - - 10 Partly cloudy - 17.2 1014.4 0.0

Other formats

Comma delimited format used in spreadsheet applications
http://www.bom.gov.au/fwo/IDT60701/IDT60701.95957.axf

JavaScript Object Notation format (JSON) in row-major order
http://www.bom.gov.au/fwo/IDT60701/IDT60701.95957.json

Data quality

Most of these data are generated automatically and are frequently updated. Quality checks on data are not normally performed. It is possible for incorrect values to appear. Refer to information at About Latest Weather Observations and please check the disclaimer before using these data.